Latest Weather Observations for Jandakot

IDW60901

Issued at 2:11 pm WST Saturday 5 September 2026 (issued every 10 minutes, with the page automatically refreshed every 10 minutes)

About weather observations | Map of Perth area stations | Latest observations for Perth area | Other Formats
Station Details ID: 009172 Name: JANDAKOT AERO Lat: -32.10 Lon: 115.88 Height: 30.0 m
Data from the previous 72 hours. | See also: Recent months at Jandakot
Date/Time
WST
Temp
°C
App
Temp
°C
Dew
Point
°C
Rel
Hum
%
Delta-T
°C
Wind Press
QNH
hPa
Press
MSL
hPa
Rain since
9am
mm
Dir  Spd
km/h
Gust
km/h
Spd
kts
Gust
kts
05/02:00pm 18.1 13.5 11.2 64 3.7 NW 26 41 14 22 1015.9 1015.9 0.0
05/01:30pm 18.8 14.0 10.4 58 4.5 NNW 26 35 14 19 1016.0 1016.0 0.0
05/01:00pm 18.7 13.3 9.5 55 4.9 NNW 28 37 15 20 1016.4 1016.4 0.0
05/12:30pm 18.7 14.6 10.0 57 4.6 N 22 33 12 18 1016.8 1016.8 0.0
05/12:00pm 18.1 13.5 9.5 57 4.5 N 24 39 13 21 1017.5 1017.5 0.0
05/11:30am 17.5 13.5 8.9 57 4.5 NNW 20 28 11 15 1017.8 1017.8 0.0
05/11:00am 17.1 12.4 9.3 60 4.1 N 24 32 13 17 1018.3 1018.3 0.0
05/10:30am 17.4 13.5 9.3 59 4.2 N 20 32 11 17 1018.6 1018.6 0.0
05/10:00am 17.0 13.0 9.2 60 4.0 N 20 28 11 15 1018.9 1018.9 0.0
05/09:30am 16.5 13.3 9.9 65 3.5 N 17 22 9 12 1019.2 1019.2 0.0
05/09:00am 15.8 14.5 10.1 69 3.0 N 7 11 4 6 1019.7 1019.7 0.0
05/08:30am 15.0 12.6 10.0 72 2.6 N 13 19 7 10 1019.7 1019.7 0.0
05/08:00am 14.6 11.9 10.4 76 2.2 NNE 15 19 8 10 1019.5 1019.5 0.0
05/07:30am 13.9 11.8 9.9 77 2.1 NNE 11 15 6 8 1019.5 1019.5 0.0
05/07:00am 13.8 10.4 9.0 73 2.4 NNE 17 20 9 11 1019.1 1019.1 0.0
05/06:30am 13.7 10.9 8.7 72 2.5 NNE 13 19 7 10 1019.1 1019.1 0.0
05/06:00am 13.6 10.5 8.9 73 2.4 NNE 15 17 8 9 1019.0 1019.0 0.0
05/05:30am 13.5 11.6 9.0 74 2.3 NNE 9 13 5 7 1018.9 1018.9 0.0
05/05:00am 13.1 11.2 9.2 77 2.0 NNE 9 11 5 6 1019.0 1019.0 0.0
05/04:30am 13.2 10.8 8.7 74 2.3 NNE 11 15 6 8 1019.0 1019.0 0.0
05/04:00am 12.7 10.8 9.2 79 1.8 E 9 11 5 6 1018.8 1018.8 0.0
05/03:30am 12.6 10.7 9.1 79 1.8 E 9 11 5 6 1019.1 1019.1 0.0
05/03:00am 12.9 12.7 9.0 77 2.0 CALM 0 0 0 0 1019.4 1019.4 0.0
05/02:30am 12.8 12.4 8.1 73 2.3 CALM 0 0 0 0 1019.8 1019.8 0.0
05/02:00am 14.3 13.8 8.0 66 3.1 CALM 0 0 0 0 1020.2 1020.2 0.0
05/01:30am 14.5 12.8 7.5 63 3.5 WNW 6 7 3 4 1020.5 1020.5 0.0
05/01:00am 15.0 11.4 6.8 58 4.0 W 15 22 8 12 1020.8 1020.8 0.0
05/12:30am 14.6 11.4 6.9 60 3.8 WNW 13 17 7 9 1021.0 1021.0 0.0
05/12:00am 14.9 11.4 7.0 59 3.9 NW 15 20 8 11 1021.2 1021.2 0.0
 
Date/Time
WST
Temp
°C
App
Temp
°C
Dew
Point
°C
Rel
Hum
%
Delta-T
°C
Wind Press
QNH
hPa
Press
MSL
hPa
Rain since
9am
mm
Dir  Spd
km/h
Gust
km/h
Spd
kts
Gust
kts
04/11:30pm 15.2 12.0 7.0 58 4.0 WNW 13 19 7 10 1021.3 1021.3 0.0
04/11:00pm 15.3 10.9 6.6 56 4.2 WNW 19 24 10 13 1021.7 1021.7 0.0
04/10:30pm 15.2 12.6 7.7 61 3.7 W 11 17 6 9 1021.9 1021.9 0.0
04/10:00pm 15.3 12.7 7.8 61 3.7 WNW 11 15 6 8 1021.9 1021.9 0.0
04/09:30pm 15.2 13.6 8.0 62 3.6 W 6 7 3 4 1022.1 1022.1 0.0
04/09:00pm 15.4 13.2 7.9 61 3.7 WNW 9 9 5 5 1022.1 1022.1 0.0
04/08:30pm 15.4 12.4 7.9 61 3.8 W 13 15 7 8 1022.2 1022.2 0.0
04/08:00pm 15.5 13.2 7.5 59 4.0 W 9 17 5 9 1022.0 1022.0 0.0
04/07:30pm 15.5 13.6 7.5 59 4.0 SW 7 9 4 5 1021.7 1021.7 0.0
04/07:00pm 15.5 13.0 8.3 62 3.6 WSW 11 17 6 9 1021.6 1021.6 0.0
04/06:30pm 15.4 13.5 9.1 66 3.2 SW 9 13 5 7 1021.3 1021.3 0.0
04/06:00pm 15.5 12.6 8.3 62 3.6 SW 13 17 7 9 1021.2 1021.2 0.0
04/05:30pm 16.4 12.7 8.1 58 4.2 SW 17 22 9 12 1020.8 1020.8 0.0
04/05:00pm 16.9 13.4 8.6 58 4.2 SW 17 24 9 13 1020.5 1020.5 0.0
04/04:30pm 16.9 12.6 7.8 55 4.6 SW 20 28 11 15 1020.2 1020.2 0.0
04/04:00pm 17.0 12.8 8.2 56 4.5 WSW 20 30 11 16 1019.9 1019.9 0.0
04/03:30pm 17.3 12.7 8.2 55 4.6 SW 22 30 12 16 1019.6 1019.6 0.0
04/03:00pm 16.9 12.3 8.1 56 4.5 WSW 22 32 12 17 1019.4 1019.4 0.0
04/02:30pm 17.3 13.5 9.2 59 4.2 WSW 19 43 10 23 1019.2 1019.2 0.0
04/02:00pm 16.6 12.3 10.9 69 3.0 SW 24 32 13 17 1019.1 1019.1 0.0
04/01:30pm 17.5 13.1 10.4 63 3.8 WSW 24 33 13 18 1018.9 1018.9 0.0
04/01:00pm 16.6 11.1 10.7 68 3.1 WSW 30 37 16 20 1019.2 1019.2 0.0
04/12:30pm 17.0 11.5 10.6 66 3.4 SW 30 44 16 24 1019.0 1019.0 0.0
04/12:00pm 19.1 13.0 8.4 50 5.5 WSW 30 43 16 23 1018.9 1018.9 0.0
04/11:30am 19.1 13.3 8.1 49 5.7 WSW 28 43 15 23 1018.9 1018.9 0.0
04/11:00am 18.5 12.7 7.9 50 5.4 WSW 28 39 15 21 1018.7 1018.7 0.0
04/10:30am 17.9 12.4 7.6 51 5.2 SW 26 35 14 19 1018.6 1018.6 0.0
04/10:00am 17.9 11.2 7.3 50 5.3 SW 32 43 17 23 1018.5 1018.5 0.0
04/09:30am 17.6 11.7 9.0 57 4.5 SW 30 43 16 23 1018.3 1018.3 0.0
04/09:00am 17.3 12.1 8.7 57 4.4 WSW 26 37 14 20 1017.8 1017.8 6.2
04/08:30am 16.5 12.5 10.4 67 3.2 WSW 22 35 12 19 1017.4 1017.4 6.2
04/08:00am 15.8 12.1 10.1 69 3.0 WSW 20 30 11 16 1016.9 1016.9 6.2
04/07:30am 15.9 11.2 9.3 65 3.4 W 24 33 13 18 1016.4 1016.4 6.2
04/07:00am 15.2 9.9 8.4 64 3.4 WSW 26 41 14 22 1015.9 1015.9 6.2
04/06:30am 15.1 10.3 9.0 67 3.1 WSW 24 37 13 20 1015.5 1015.5 6.2
04/06:00am 15.4 11.1 9.5 68 3.1 WSW 22 32 12 17 1015.4 1015.4 6.2
04/05:30am 14.9 11.2 10.3 74 2.4 WSW 20 35 11 19 1015.1 1015.1 6.2
04/05:00am 14.9 12.5 12.6 86 1.3 WSW 17 28 9 15 1014.8 1014.8 6.0
04/04:30am 14.3 10.9 12.5 89 1.0 WSW 22 30 12 16 1014.2 1014.2 5.8
04/04:28am 14.2 10.5 12.6 90 0.9 WSW 24 35 13 19 1014.2 1014.2 5.8
04/04:14am 14.0 9.4 12.2 89 1.0 W 28 48 15 26 1014.0 1014.0 5.8
04/04:12am 14.2 10.5 12.6 90 0.9 W 24 48 13 26 1014.0 1014.0 5.8
04/04:00am 14.4 10.4 13.1 92 0.7 W 26 35 14 19 1013.9 1013.9 4.6
04/03:59am 14.4 10.4 13.1 92 0.7 W 26 35 14 19 1013.9 1013.9 4.6
04/03:48am 14.3 9.1 12.9 91 0.8 W 32 50 17 27 1014.1 1014.1 4.4
04/03:44am 14.3 8.2 12.9 91 0.8 W 37 52 20 28 1014.1 1014.1 4.4
04/03:37am 14.6 8.8 12.6 88 1.1 W 35 52 19 28 1014.0 1014.0 4.0
04/03:34am 15.2 9.8 12.2 82 1.6 W 32 50 17 27 1013.9 1013.9 3.6
04/03:30am 16.4 11.3 10.5 68 3.1 WNW 28 44 15 24 1013.7 1013.7 3.4
04/03:00am 15.8 10.6 10.1 69 3.0 WNW 28 37 15 20 1013.8 1013.8 3.4
04/02:30am 15.8 11.5 10.6 71 2.8 WNW 24 30 13 16 1013.9 1013.9 3.4
04/02:00am 15.5 10.3 10.1 70 2.8 W 28 39 15 21 1013.9 1013.9 3.4
04/01:30am 15.0 10.5 12.5 85 1.4 WNW 28 41 15 22 1014.0 1014.0 3.4
04/01:23am 14.8 10.5 13.3 91 0.8 WNW 28 35 15 19 1014.2 1014.2 3.4
04/01:13am 14.7 10.0 13.1 90 0.9 WNW 30 41 16 22 1014.3 1014.3 3.4
04/01:03am 15.1 10.7 12.8 86 1.3 WNW 28 46 15 25 1014.1 1014.1 3.0
04/01:00am 15.3 11.6 12.6 84 1.5 W 24 41 13 22 1014.2 1014.2 2.4
04/12:30am 15.1 12.2 12.8 86 1.3 WNW 20 30 11 16 1014.3 1014.3 2.0
04/12:00am 14.7 11.8 12.9 89 1.0 WNW 20 28 11 15 1014.5 1014.5 2.0
 
Date/Time
WST
Temp
°C
App
Temp
°C
Dew
Point
°C
Rel
Hum
%
Delta-T
°C
Wind Press
QNH
hPa
Press
MSL
hPa
Rain since
9am
mm
Dir  Spd
km/h
Gust
km/h
Spd
kts
Gust
kts
03/11:59pm 14.7 11.8 12.9 89 1.0 WNW 20 28 11 15 1014.6 1014.6 2.0
03/11:49pm 14.8 10.5 13.2 90 0.9 WNW 28 48 15 26 1014.6 1014.6 2.0
03/11:46pm 15.0 9.9 13.2 89 1.0 WNW 32 50 17 27 1014.7 1014.7 2.0
03/11:39pm 15.9 12.1 12.3 79 2.0 WNW 24 50 13 27 1014.7 1014.7 1.8
03/11:30pm 16.3 12.9 10.4 68 3.1 WNW 19 26 10 14 1014.7 1014.7 1.6
03/11:00pm 16.5 12.2 9.2 62 3.8 WNW 22 32 12 17 1015.0 1015.0 1.6
03/10:30pm 16.2 11.4 8.7 61 3.8 WNW 24 33 13 18 1015.3 1015.3 1.6
03/10:08pm 16.0 12.0 10.3 69 3.0 W 22 32 12 17 1015.6 1015.6 1.6
03/10:00pm 16.0 10.9 10.5 70 2.9 W 28 44 15 24 1015.7 1015.7 1.6
03/09:58pm 16.0 10.9 10.7 71 2.8 WNW 28 44 15 24 1015.7 1015.7 1.6
03/09:30pm 16.1 12.9 10.0 67 3.2 WNW 17 24 9 13 1016.0 1016.0 1.6
03/09:00pm 16.1 11.5 9.5 65 3.4 WNW 24 33 13 18 1016.1 1016.1 1.6
03/08:30pm 16.4 12.0 10.3 67 3.2 WNW 24 39 13 21 1016.3 1016.3 1.6
03/08:00pm 16.4 11.8 10.9 70 2.9 WNW 26 35 14 19 1016.3 1016.3 1.6
03/07:30pm 16.5 11.4 11.9 74 2.5 WNW 30 37 16 20 1016.0 1016.0 1.6
03/07:00pm 15.8 13.3 13.5 86 1.3 WNW 19 24 10 13 1015.8 1015.8 1.6
03/06:30pm 15.6 12.6 13.8 89 1.0 WNW 22 32 12 17 1015.7 1015.7 1.4
03/06:00pm 15.5 13.4 13.7 89 1.0 WNW 17 22 9 12 1015.5 1015.5 1.4
03/05:30pm 16.5 12.7 12.5 77 2.2 NW 24 35 13 19 1015.2 1015.2 1.0
03/05:00pm 16.5 13.3 13.2 81 1.8 WNW 22 28 12 15 1015.3 1015.3 1.0
03/04:30pm 18.0 12.5 11.8 67 3.4 WNW 32 43 17 23 1015.1 1015.1 1.0
03/04:00pm 18.8 14.9 12.1 65 3.7 WNW 24 32 13 17 1015.3 1015.3 1.0
03/03:30pm 18.9 15.0 12.2 65 3.7 WNW 24 37 13 20 1015.5 1015.5 1.0
03/03:00pm 18.2 13.4 11.5 65 3.7 WNW 28 37 15 20 1015.7 1015.7 1.0
03/02:30pm 18.1 14.1 13.0 72 2.9 W 26 35 14 19 1016.1 1016.1 1.0
03/02:00pm 18.6 14.5 12.6 68 3.4 NW 26 35 14 19 1016.3 1016.3 1.0
03/01:30pm 18.4 14.9 13.5 73 2.8 NNW 24 33 13 18 1016.6 1016.6 1.0
03/01:00pm 18.5 15.4 13.4 72 2.9 NNW 22 30 12 16 1017.3 1017.3 1.0
03/12:30pm 18.4 14.9 13.3 72 2.9 NNW 24 30 13 16 1017.7 1017.7 1.0
03/12:00pm 17.6 14.7 12.9 74 2.6 NNW 20 28 11 15 1018.1 1018.1 1.0
03/11:52am 18.0 15.5 14.1 78 2.2 NNW 20 28 11 15 1018.2 1018.2 1.0
03/11:30am 17.2 14.8 13.9 81 1.9 N 19 24 10 13 1018.5 1018.5 1.0
03/11:00am 16.6 14.3 14.2 86 1.4 N 19 24 10 13 1018.7 1018.7 1.0
03/10:53am 16.4 14.5 15.1 92 0.8 N 19 26 10 14 1018.8 1018.8 1.0
03/10:45am 15.9 14.6 14.8 93 0.6 N 15 19 8 10 1019.0 1019.0 1.0
03/10:36am 15.8 14.6 15.0 95 0.5 N 15 19 8 10 1019.1 1019.1 1.0
03/10:30am 14.9 13.3 13.8 93 0.6 N 15 19 8 10 1019.2 1019.2 0.8
03/10:29am 14.9 13.3 13.8 93 0.6 N 15 19 8 10 1019.3 1019.3 0.8
03/10:23am 14.9 13.2 13.6 92 0.7 N 15 17 8 9 1019.4 1019.4 0.6
03/10:00am 14.9 13.5 13.4 91 0.8 N 13 19 7 10 1019.6 1019.6 0.2
03/09:56am 15.0 13.6 13.4 90 0.9 N 13 15 7 8 1019.6 1019.6 0.2
03/09:47am 15.4 14.3 13.1 86 1.3 N 11 15 6 8 1019.7 1019.7 0.0
03/09:30am 15.5 14.1 13.5 88 1.1 N 13 15 7 8 1019.8 1019.8 0.0
03/09:00am 14.7 12.8 12.9 89 1.0 NNE 15 19 8 10 1019.8 1019.8 2.2
03/08:30am 14.4 12.3 13.6 95 0.4 NNE 17 20 9 11 1019.7 1019.7 2.2
03/08:00am 13.9 12.9 13.3 96 0.3 N 11 13 6 7 1019.8 1019.8 2.2
03/07:30am 13.3 12.8 12.8 97 0.3 NE 7 9 4 5 1019.7 1019.7 2.2
03/07:00am 12.3 11.2 11.8 97 0.3 NE 9 11 5 6 1019.4 1019.4 2.2
03/06:31am 11.9 10.3 11.4 97 0.3 NE 11 11 6 6 1019.5 1019.5 2.2
03/06:30am 11.8 10.1 11.3 97 0.3 NE 11 11 6 6 1019.5 1019.5 2.2
03/06:03am 12.5 11.0 12.0 97 0.3 NE 11 13 6 7 1019.6 1019.6 2.2
03/06:00am 12.6 11.2 12.1 97 0.3 NE 11 13 6 7 1019.6 1019.6 2.2
03/05:43am 12.6 11.2 12.1 97 0.3 NE 11 13 6 7 1019.6 1019.6 2.2
03/05:30am 12.9 11.6 12.4 97 0.3 NNE 11 13 6 7 1019.6 1019.6 2.2
03/05:28am 13.0 11.7 12.5 97 0.3 NNE 11 15 6 8 1019.7 1019.7 2.2
03/05:00am 12.8 11.1 12.3 97 0.3 ENE 13 15 7 8 1019.5 1019.5 2.2
03/04:30am 13.1 12.2 12.6 97 0.3 E 9 13 5 7 1019.6 1019.6 2.2
03/04:05am 13.2 12.3 12.7 97 0.3 ESE 9 11 5 6 1019.6 1019.6 2.2
03/04:00am 13.1 12.8 12.6 97 0.3 E 6 11 3 6 1019.6 1019.6 2.2
03/03:30am 13.0 13.4 12.5 97 0.3 NNE 2 6 1 3 1019.9 1019.9 2.2
03/03:29am 13.0 13.4 12.5 97 0.3 NNE 2 7 1 4 1019.9 1019.9 2.2
03/03:08am 13.0 12.6 12.5 97 0.3 NNE 6 9 3 5 1020.1 1020.1 2.0
03/03:06am 13.0 12.5 12.5 97 0.3 NNE 7 9 4 5 1020.1 1020.1 2.0
03/03:00am 13.0 12.1 12.5 97 0.3 NNE 9 11 5 6 1020.2 1020.2 2.0
03/02:45am 12.9 11.6 12.4 97 0.3 NNE 11 15 6 8 1020.3 1020.3 2.0
03/02:30am 12.9 11.2 12.4 97 0.3 N 13 15 7 8 1020.4 1020.4 2.0
03/02:00am 12.8 11.1 12.3 97 0.3 N 13 15 7 8 1020.5 1020.5 2.0
03/01:48am 12.9 11.9 12.4 97 0.3 N 9 11 5 6 1020.7 1020.7 2.0
03/01:34am 12.8 11.4 12.3 97 0.3 N 11 13 6 7 1020.7 1020.7 2.0
03/01:30am 12.9 11.6 12.4 97 0.3 N 11 13 6 7 1020.8 1020.8 2.0
03/01:07am 13.0 12.5 12.5 97 0.3 N 7 11 4 6 1020.9 1020.9 2.0
03/01:00am 13.0 13.4 12.5 97 0.3 N 2 11 1 6 1020.9 1020.9 2.0
03/12:54am 12.6 13.3 12.1 97 0.3 CALM 0 0 0 0 1021.0 1021.0 2.0
03/12:53am 12.4 13.0 11.9 97 0.3 CALM 0 0 0 0 1020.9 1020.9 2.0
03/12:36am 12.6 13.2 12.0 96 0.3 CALM 0 0 0 0 1021.0 1021.0 2.0
03/12:30am 12.8 13.5 12.2 96 0.3 CALM 0 0 0 0 1021.0 1021.0 2.0
03/12:20am 12.8 13.1 12.2 96 0.3 NNE 2 6 1 3 1021.0 1021.0 2.0
03/12:19am 12.8 13.1 12.2 96 0.3 NNE 2 6 1 3 1021.0 1021.0 2.0
03/12:11am 12.8 12.3 12.2 96 0.3 NNE 6 6 3 3 1021.1 1021.1 2.0
03/12:00am 12.8 12.2 12.2 96 0.3 NNE 7 9 4 5 1021.2 1021.2 2.0
 
Date/Time
WST
Temp
°C
App
Temp
°C
Dew
Point
°C
Rel
Hum
%
Delta-T
°C
Wind Press
QNH
hPa
Press
MSL
hPa
Rain since
9am
mm
Dir  Spd
km/h
Gust
km/h
Spd
kts
Gust
kts
02/11:30pm 13.3 12.4 12.7 96 0.3 NE 9 11 5 6 1021.5 1021.5 2.0
02/11:00pm 13.3 12.8 12.7 96 0.3 NNE 7 9 4 5 1021.9 1021.9 2.0
02/10:30pm 13.2 13.2 12.3 94 0.5 ESE 4 9 2 5 1022.0 1022.0 2.0
02/10:00pm 14.2 13.5 13.2 94 0.6 SE 9 11 5 6 1022.1 1022.1 2.0
02/09:41pm 14.2 13.5 13.2 94 0.6 N 9 9 5 5 1022.2 1022.2 2.0
02/09:30pm 14.0 14.6 13.1 94 0.5 SSE 2 7 1 4 1022.3 1022.3 2.0
02/09:19pm 14.1 13.7 13.1 94 0.6 SSE 7 11 4 6 1022.4 1022.4 1.8
02/09:00pm 14.2 13.1 13.2 94 0.6 SSW 11 15 6 8 1022.4 1022.4 1.8
02/08:45pm 14.3 13.3 13.3 94 0.6 SSW 11 13 6 7 1022.4 1022.4 1.8
02/08:34pm 14.4 13.8 13.4 94 0.6 SW 9 11 5 6 1022.4 1022.4 1.8
02/08:30pm 14.4 14.1 13.4 94 0.6 SW 7 11 4 6 1022.4 1022.4 1.8
02/08:13pm 14.5 13.9 13.5 94 0.6 WSW 9 11 5 6 1022.4 1022.4 1.6
02/08:00pm 14.6 14.3 13.3 92 0.7 W 7 11 4 6 1022.3 1022.3 0.8
02/07:58pm 14.7 14.5 13.6 93 0.6 W 7 11 4 6 1022.2 1022.2 0.6
02/07:30pm 14.9 13.1 13.3 90 0.9 W 15 20 8 11 1022.2 1022.2 0.2
02/07:00pm 15.3 13.9 12.2 82 1.7 NW 11 15 6 8 1021.8 1021.8 0.2
02/06:30pm 15.7 13.6 12.5 81 1.8 WNW 15 20 8 11 1021.7 1021.7 0.2
02/06:00pm 16.0 13.8 12.0 77 2.2 W 15 20 8 11 1021.5 1021.5 0.2
02/05:30pm 16.0 13.5 12.2 78 2.1 W 17 20 9 11 1021.2 1021.2 0.2
02/05:00pm 16.1 13.0 12.3 78 2.1 WNW 20 32 11 17 1021.1 1021.1 0.0
02/04:30pm 16.8 12.8 11.7 72 2.8 WNW 24 35 13 19 1021.0 1021.0 0.0
02/04:00pm 17.2 13.5 10.1 63 3.7 WNW 20 26 11 14 1021.0 1021.0 0.0
02/03:30pm 17.7 13.8 10.8 64 3.7 WNW 22 30 12 16 1021.1 1021.1 0.0
02/03:00pm 17.3 12.9 10.4 64 3.7 WNW 24 32 13 17 1021.3 1021.3 0.0
02/02:30pm 17.5 14.0 10.9 65 3.6 WNW 20 32 11 17 1021.3 1021.3 0.0

Latest Capital City Observations: Canberra | Sydney | Melbourne | Brisbane | Adelaide | Perth | Hobart | Darwin

Other formats

Comma delimited format used in spreadsheet applications
http://www.bom.gov.au/fwo/IDW60901/IDW60901.94609.axf

JavaScript Object Notation format (JSON) in row-major order
http://www.bom.gov.au/fwo/IDW60901/IDW60901.94609.json

Data quality

Most of these data are generated automatically and are frequently updated. Quality checks on data are not normally performed. It is possible for incorrect values to appear. Refer to information at About Latest Weather Observations and please check the disclaimer before using these data.